createdAt,value
2023-04-18T00:01:08.879Z,4.3
2023-04-18T00:03:12.198Z,3.7
2023-04-18T00:05:15.190Z,4.2
2023-04-18T00:07:18.292Z,4.9
2023-04-18T00:09:21.426Z,3.6
2023-04-18T00:11:27.705Z,5.1
2023-04-18T00:13:30.841Z,4.3
2023-04-18T00:15:33.956Z,3.7
2023-04-18T00:21:43.329Z,3.9
2023-04-18T00:23:46.422Z,3.8
2023-04-18T00:29:59.009Z,3
2023-04-18T00:34:05.229Z,3.4
2023-04-18T00:38:11.424Z,5
2023-04-18T00:40:17.780Z,4.6
2023-04-18T00:42:20.870Z,4.8
2023-04-18T00:46:53.817Z,4.6
2023-04-18T00:48:56.925Z,3.4
2023-04-18T00:51:00.028Z,3.5
2023-04-18T00:53:06.304Z,5.1
2023-04-18T00:55:09.435Z,3.9
2023-04-18T00:57:12.540Z,2.6
2023-04-18T00:59:15.636Z,3
2023-04-18T01:01:18.770Z,3.1
2023-04-18T01:03:22.061Z,3.5
2023-04-18T01:07:31.264Z,5.1
2023-04-18T01:09:34.351Z,3.5
2023-04-18T01:11:37.446Z,3.3
2023-04-18T01:13:40.557Z,3.7
2023-04-18T01:15:43.799Z,3.9
2023-04-18T01:17:46.799Z,5.2
2023-04-18T01:19:49.864Z,5.4
2023-04-18T01:21:56.179Z,4
2023-04-18T01:23:59.266Z,3.6
2023-04-18T01:26:02.362Z,3.9
2023-04-18T01:30:08.603Z,4.6
2023-04-18T01:32:11.676Z,4.5
2023-04-18T01:34:15.056Z,4.1
2023-04-18T01:40:27.266Z,4.2
2023-04-18T01:41:30.427Z,4.7
2023-04-18T01:43:33.521Z,3
2023-04-18T01:45:36.597Z,4.1
2023-04-18T01:49:46.023Z,5.7
2023-04-18T01:51:49.113Z,3.3
2023-04-18T01:53:52.234Z,4.3
2023-04-18T02:12:23.283Z,4.7
2023-04-18T02:14:26.348Z,4.9
2023-04-18T02:20:38.851Z,3.9
2023-04-18T02:22:41.972Z,5.4
2023-04-18T02:26:48.125Z,4.6
2023-04-18T02:28:51.631Z,5.5
2023-04-18T02:38:10.331Z,5.6
2023-04-18T02:40:13.482Z,5.7
2023-04-18T02:42:16.535Z,6.2
2023-04-18T02:44:19.620Z,3.8
2023-04-18T02:46:26.050Z,4.1
2023-04-18T02:52:35.179Z,5.3
2023-04-18T02:58:44.493Z,5.4
2023-04-18T03:00:50.736Z,6
2023-04-18T03:07:00.034Z,4.7
2023-04-18T03:09:03.110Z,5.3
2023-04-18T03:11:06.220Z,5.2
2023-04-18T03:15:15.579Z,4.7
2023-04-18T03:17:18.699Z,6.1
2023-04-18T03:19:21.728Z,4.7
2023-04-18T03:23:27.917Z,5.7
2023-04-18T03:25:30.991Z,4.9
2023-04-18T03:27:34.104Z,6
2023-04-18T03:29:40.416Z,7.6
2023-04-18T03:31:43.608Z,6.9
2023-04-18T03:33:46.599Z,5.5
2023-04-18T03:34:49.738Z,6.2
2023-04-18T03:38:55.913Z,6.3
2023-04-18T03:43:05.314Z,6.6
2023-04-18T03:45:08.407Z,6.8
2023-04-18T03:47:11.504Z,7.2
2023-04-18T03:49:14.575Z,4.7
2023-04-18T03:51:17.701Z,8.3
2023-04-18T03:57:30.191Z,6.3
2023-04-18T03:59:33.265Z,6.9
2023-04-18T04:01:36.461Z,6.6
2023-04-18T04:03:39.681Z,7.5
2023-04-18T04:05:42.588Z,5.3
2023-04-18T04:07:45.662Z,7
2023-04-18T04:16:01.307Z,5.3
2023-04-18T04:20:07.495Z,4.4
2023-04-18T04:22:10.612Z,6.7
2023-04-18T04:24:14.093Z,5.5
2023-04-18T04:26:19.964Z,6.1
2023-04-18T04:28:23.065Z,6.1
2023-04-18T04:30:26.165Z,7.5
2023-04-18T04:32:55.706Z,6.6
2023-04-18T04:34:58.763Z,8.3
2023-04-18T04:37:01.880Z,8.9
2023-04-18T04:39:08.175Z,6.9
2023-04-18T04:41:11.265Z,7
2023-04-18T04:43:14.385Z,7.2
2023-04-18T04:45:17.471Z,6.1
2023-04-18T04:47:20.715Z,6.1
2023-04-18T04:49:23.683Z,7.7
2023-04-18T04:51:26.758Z,7.2
2023-04-18T04:53:33.086Z,6.6
2023-04-18T04:55:36.208Z,7.2
2023-04-18T04:57:39.975Z,7.5
2023-04-18T04:59:42.399Z,4.7
2023-04-18T05:01:45.603Z,5.8
2023-04-18T05:03:48.776Z,6.5
2023-04-18T05:05:51.662Z,6.7
2023-04-18T05:07:59.145Z,8.1
2023-04-18T05:10:01.100Z,7.2
2023-04-18T05:12:04.202Z,7.1
2023-04-18T05:14:07.315Z,8
2023-04-18T05:18:17.293Z,7.5
2023-04-18T05:20:16.573Z,8
2023-04-18T05:24:26.001Z,6.5
2023-04-18T05:27:32.200Z,5.5
2023-04-18T05:29:35.319Z,8.2
2023-04-18T05:31:38.446Z,6.8
2023-04-18T05:33:41.534Z,8.5
2023-04-18T05:37:50.912Z,8.9
2023-04-18T05:39:54.012Z,7.4
2023-04-18T05:41:57.148Z,7.8
2023-04-18T05:44:05.363Z,5
2023-04-18T05:48:06.470Z,6.7
2023-04-18T05:50:12.709Z,8.3
2023-04-18T05:54:18.932Z,8
2023-04-18T05:58:25.090Z,6.5
2023-04-18T06:00:28.234Z,5.8
2023-04-18T06:02:31.447Z,7.2
2023-04-18T06:04:37.709Z,6.1
2023-04-18T06:06:40.718Z,7.4
2023-04-18T06:08:43.810Z,5.5
2023-04-18T06:12:50.054Z,6.6
2023-04-18T06:16:56.298Z,4.8
2023-04-18T06:19:02.575Z,4.4
2023-04-18T06:21:05.701Z,6.3
2023-04-18T06:24:12.187Z,6.9
2023-04-18T06:26:15.065Z,5.8
2023-04-18T06:28:18.176Z,6.1
2023-04-18T06:36:33.884Z,6
2023-04-18T06:42:43.247Z,5.7
2023-04-18T06:46:52.750Z,4.3
2023-04-18T06:48:55.853Z,5.2
2023-04-18T06:50:58.985Z,4.9
2023-04-18T06:53:02.146Z,3.7
2023-04-18T06:55:05.263Z,4
2023-04-18T06:57:08.403Z,4.2
2023-04-18T06:59:11.771Z,5
2023-04-18T07:01:17.884Z,5.3
2023-04-18T07:03:21.141Z,5.7
2023-04-18T07:05:24.104Z,5.2
2023-04-18T07:09:30.386Z,5.5
2023-04-18T07:13:36.644Z,3.2
2023-04-18T07:19:49.270Z,4.2
2023-04-18T07:20:52.427Z,5.5
2023-04-18T07:22:55.572Z,4.5
2023-04-18T07:24:58.719Z,2.3
2023-04-18T07:27:01.854Z,3.8
2023-04-18T07:29:08.237Z,3.8
2023-04-18T07:31:11.543Z,3
2023-04-18T07:33:14.518Z,4.1
2023-04-18T07:41:26.821Z,2.6
2023-04-18T08:08:12.978Z,2.4
2023-04-18T08:10:16.127Z,2.6
2023-04-18T08:12:22.481Z,2.1
2023-04-18T08:16:28.867Z,3.2
2023-04-18T08:18:52.566Z,2.5
2023-04-18T08:20:55.700Z,4.1
2023-04-18T08:23:07.389Z,2.2
2023-04-18T08:25:05.823Z,4
2023-04-18T08:27:08.371Z,3.2
2023-04-18T08:29:11.719Z,4.5
2023-04-18T08:33:17.802Z,2.6
2023-04-18T08:35:20.969Z,3.3
2023-04-18T08:47:43.092Z,2.7
2023-04-18T08:53:55.737Z,2.6
2023-04-18T09:13:30.281Z,2.1
2023-04-18T09:15:33.446Z,2.7
2023-04-18T09:17:36.622Z,3.2
2023-04-18T09:19:39.753Z,5.2
2023-04-18T09:21:46.109Z,3.4
2023-04-18T09:23:49.270Z,2.7
2023-04-18T09:25:52.431Z,2.2
2023-04-18T09:27:55.569Z,2.7
2023-04-18T09:29:58.727Z,2.9
2023-04-18T09:32:01.908Z,2.1
2023-04-18T09:34:05.037Z,2.1
2023-04-18T09:36:11.402Z,1.4
2023-04-18T09:44:23.592Z,2.7
2023-04-18T09:46:26.787Z,2.6
2023-04-18T09:48:29.805Z,3.4
2023-04-18T09:52:39.048Z,3.7
2023-04-18T09:54:42.065Z,2.1
2023-04-18T09:56:45.136Z,2.4
2023-04-18T09:58:48.177Z,3.8
2023-04-18T10:00:51.223Z,2.7
2023-04-18T10:02:54.413Z,2.2
2023-04-18T10:05:00.590Z,2.2
2023-04-18T10:07:05.218Z,3.2
2023-04-18T10:09:06.562Z,4.7
2023-04-18T10:10:09.630Z,2.8
2023-04-18T10:12:12.792Z,2.8
2023-04-18T10:14:16.101Z,3.2
2023-04-18T10:28:41.720Z,4.1
2023-04-18T10:30:44.825Z,3.4
2023-04-18T10:32:50.958Z,3.5
2023-04-18T10:34:53.997Z,4.3
2023-04-18T10:36:57.008Z,5.2
2023-04-18T10:39:00.070Z,3.3
2023-04-18T10:41:03.112Z,3.9
2023-04-18T10:43:06.166Z,5.1
2023-04-18T10:45:09.255Z,4.7
2023-04-18T10:47:15.462Z,5.1
2023-04-18T10:49:18.480Z,4.2
2023-04-18T10:53:24.583Z,5.9
2023-04-18T10:57:30.704Z,6
2023-04-18T10:59:33.770Z,5.2
2023-04-18T11:01:40.073Z,4.3
2023-04-18T11:03:43.021Z,5.5
2023-04-18T11:05:46.056Z,4.6
2023-04-18T11:06:49.081Z,4.5
2023-04-18T11:17:07.458Z,5.9
2023-04-18T11:19:10.526Z,4.8
2023-04-18T11:21:13.545Z,4.2
2023-04-18T11:23:16.610Z,4.8
2023-04-18T11:25:19.675Z,4.5
2023-04-18T11:29:28.889Z,5
2023-04-18T11:31:31.941Z,4
2023-04-18T11:33:35.001Z,4.8
2023-04-18T11:35:38.084Z,3.3
2023-04-18T11:39:44.178Z,4
2023-04-18T11:43:53.368Z,4.3
2023-04-18T11:54:08.597Z,4.4
2023-04-18T11:58:17.785Z,5.2
2023-04-18T12:00:20.840Z,3.9
2023-04-18T12:02:24.082Z,4.3
2023-04-18T12:08:59.428Z,6
2023-04-18T12:11:05.579Z,5.3
2023-04-18T12:13:08.695Z,6
2023-04-18T12:15:11.691Z,6
2023-04-18T12:27:33.121Z,5.6
2023-04-18T12:31:39.304Z,5.7
2023-04-18T12:44:00.679Z,5.9
2023-04-18T12:59:28.219Z,5.7
2023-04-18T13:01:31.337Z,6.4
2023-04-18T13:03:34.487Z,7.7
2023-04-18T13:07:43.511Z,8.1
2023-04-18T13:20:01.817Z,6.1
2023-04-18T13:24:10.949Z,6.3
2023-04-18T13:28:17.047Z,6.1
2023-04-18T13:30:20.075Z,5.8
2023-04-18T13:36:32.250Z,6.5
2023-04-18T13:38:35.321Z,6.5
2023-04-18T13:42:45.930Z,7.2
2023-04-18T13:44:44.373Z,8.1
2023-04-18T13:48:50.417Z,6.4
2023-04-18T13:50:56.548Z,6.4
2023-04-18T13:55:02.625Z,5
2023-04-18T13:56:05.649Z,5.2
2023-04-18T14:00:11.712Z,5.7
2023-04-18T14:02:14.903Z,4.6
2023-04-18T14:04:21.058Z,5.3
2023-04-18T14:08:26.829Z,4
2023-04-18T14:12:32.871Z,5.3
2023-04-18T14:14:35.870Z,4.5
2023-04-18T14:16:38.880Z,4.9
2023-04-18T14:18:44.998Z,4.6
2023-04-18T14:22:53.032Z,5.2
2023-04-18T14:24:53.987Z,4
2023-04-18T14:26:56.960Z,4
2023-04-18T14:28:59.949Z,5.3
2023-04-18T14:31:02.979Z,5.1
2023-04-18T14:33:09.029Z,4.4
2023-04-18T14:35:11.961Z,4.9
2023-04-18T14:37:15.765Z,5.4
2023-04-18T14:39:17.902Z,3.8
2023-04-18T14:41:20.875Z,5
2023-04-18T14:43:23.823Z,4.4
2023-04-18T14:45:26.813Z,6.6
2023-04-18T14:47:32.914Z,5.1
2023-04-18T14:49:35.868Z,4.8
2023-04-18T14:51:38.907Z,4.7
2023-04-18T14:56:47.914Z,4.3
2023-04-18T15:00:57.049Z,4.4
2023-04-18T15:07:06.046Z,3.1
2023-04-18T15:09:09.034Z,3.4
2023-04-18T15:21:30.079Z,5.2
2023-04-18T15:25:36.034Z,4
2023-04-18T15:50:44.141Z,3.7
2023-04-18T15:52:47.129Z,3.6
2023-04-18T15:54:50.089Z,3.4
2023-04-18T15:56:56.199Z,4.4
2023-04-18T15:58:59.169Z,3.6
2023-04-18T16:01:02.335Z,6.1
2023-04-18T16:03:05.218Z,3.9
2023-04-18T16:07:11.160Z,4.3
2023-04-18T16:09:14.140Z,3.4
2023-04-18T16:13:23.225Z,3.8
2023-04-18T16:15:26.258Z,4.1
2023-04-18T16:19:33.919Z,3.8
2023-04-18T16:23:39.791Z,3.9
2023-04-18T16:27:48.938Z,3.3
2023-04-18T16:31:55.031Z,4.1
2023-04-18T16:33:58.069Z,3.7
2023-04-18T16:42:15.378Z,5.6
2023-04-18T16:44:16.456Z,3.5
2023-04-18T16:45:19.393Z,4.1
2023-04-18T16:53:34.718Z,3.5
2023-04-18T16:57:40.788Z,4
2023-04-18T16:59:43.835Z,4
2023-04-18T17:01:46.985Z,4.8
2023-04-18T17:03:50.029Z,3.7
2023-04-18T17:05:52.963Z,5.2
2023-04-18T17:07:59.146Z,4.1
2023-04-18T17:12:05.239Z,4.3
2023-04-18T17:14:08.288Z,3.6
2023-04-18T17:16:11.381Z,5.8
2023-04-18T17:18:14.378Z,4.6
2023-04-18T17:20:17.422Z,4.1
2023-04-18T17:22:23.546Z,4.7
2023-04-18T17:24:26.634Z,5.3
2023-04-18T17:26:29.652Z,6.6
2023-04-18T17:28:32.716Z,5.2
2023-04-18T17:30:35.766Z,2.9
2023-04-18T17:32:38.885Z,5
2023-04-18T17:34:41.862Z,2.7
2023-04-18T17:36:48.036Z,4
2023-04-18T17:38:51.080Z,2.8
2023-04-18T17:40:54.133Z,2.1
2023-04-18T17:41:57.213Z,1.9
2023-04-18T17:44:00.239Z,2.7
2023-04-18T17:46:03.388Z,2.1
2023-04-18T17:48:06.432Z,4.4
2023-04-18T17:50:12.534Z,2.4
2023-04-18T17:52:15.627Z,2.1
2023-04-18T17:54:18.677Z,3.6
2023-04-18T17:56:21.730Z,3.6
2023-04-18T18:04:37.193Z,2.5
2023-04-18T18:06:40.121Z,2.2
2023-04-18T18:08:43.230Z,2.4
2023-04-18T18:10:46.701Z,2
2023-04-18T18:12:49.330Z,1.4
2023-04-18T18:14:52.378Z,2.1
2023-04-18T18:19:01.633Z,1.8
2023-04-18T18:25:10.786Z,1
2023-04-18T18:27:13.842Z,2
2023-04-18T18:29:17.095Z,3.3
2023-04-18T18:31:19.969Z,3.3
2023-04-18T18:33:26.158Z,1.5
2023-04-18T18:37:32.285Z,3.5
2023-04-18T18:38:35.339Z,3.2
2023-04-18T18:40:38.407Z,3.5
2023-04-18T18:42:41.462Z,1.4
2023-04-18T18:44:44.745Z,1.4
2023-04-18T18:46:50.927Z,3.2
2023-04-18T18:48:53.765Z,3.2
2023-04-18T18:50:56.825Z,2.6
2023-04-18T18:52:59.887Z,2
2023-04-18T18:55:02.948Z,2.3
2023-04-18T18:59:09.052Z,2.8
2023-04-18T19:01:15.245Z,2.3
2023-04-18T19:03:18.402Z,2.1
2023-04-18T19:05:21.320Z,3.2
2023-04-18T19:07:24.369Z,2.7
2023-04-18T19:09:27.456Z,2.8
2023-04-18T19:19:45.866Z,6.3
2023-04-18T19:36:32.114Z,2.9
2023-04-18T19:38:35.121Z,4.4
2023-04-18T19:44:47.391Z,2.9
2023-04-18T19:46:50.436Z,3.5
2023-04-18T19:48:53.499Z,3
2023-04-18T19:50:56.551Z,1.7
2023-04-18T19:52:59.596Z,3.2
2023-04-18T19:55:02.684Z,2.9
2023-04-18T19:59:12.281Z,2.4
2023-04-18T20:03:18.656Z,2
2023-04-18T20:11:34.244Z,4.1
2023-04-18T20:13:37.413Z,3.8
2023-04-18T20:17:43.843Z,4.7
2023-04-18T20:19:46.845Z,2.3
2023-04-18T20:21:50.021Z,4.2
2023-04-18T20:23:53.161Z,3.1
2023-04-18T20:25:59.550Z,3.7
2023-04-18T20:28:02.723Z,3.1
2023-04-18T20:30:05.859Z,3.9
2023-04-18T20:31:09.070Z,3.9
2023-04-18T20:33:12.190Z,4.3
2023-04-18T20:35:15.332Z,3.9
2023-04-18T20:37:18.484Z,3.5
2023-04-18T20:39:24.857Z,4.1
2023-04-18T20:41:28.009Z,3.6
2023-04-18T20:43:31.172Z,2.6
2023-04-18T20:45:34.346Z,3.1
2023-04-18T20:47:37.516Z,3.1
2023-04-18T20:49:40.658Z,3.9
2023-04-18T20:51:43.814Z,3.3
2023-04-18T20:57:56.453Z,4.2
2023-04-18T20:59:59.629Z,3.9
2023-04-18T21:02:02.950Z,3.8
2023-04-18T21:04:06.139Z,2.7
2023-04-18T21:06:09.070Z,3.4
2023-04-18T21:08:15.413Z,3
2023-04-18T21:10:18.556Z,2.7
2023-04-18T21:12:21.735Z,5
2023-04-18T21:14:24.852Z,3.1
2023-04-18T21:16:28.029Z,4.8
2023-04-18T21:22:40.635Z,3.2
2023-04-18T21:24:43.791Z,3.4
2023-04-18T21:26:46.960Z,3.5
2023-04-18T21:27:50.116Z,3.5
2023-04-18T21:29:53.238Z,4.7
2023-04-18T21:31:56.427Z,3.8
2023-04-18T21:33:59.525Z,4.6
2023-04-18T21:38:09.050Z,4.5
2023-04-18T21:40:12.207Z,4
2023-04-18T21:42:15.349Z,4.5
2023-04-18T21:44:18.504Z,3.5
2023-04-18T21:46:21.762Z,5.3
2023-04-18T21:48:24.811Z,3.6
2023-04-18T21:50:31.154Z,4.1
2023-04-18T21:52:34.300Z,4.3
2023-04-18T21:54:37.486Z,3.2
2023-04-18T21:56:40.600Z,4
2023-04-18T21:58:43.758Z,3.9
2023-04-18T22:00:46.998Z,4.3
2023-04-18T22:02:50.163Z,4.6
2023-04-18T22:04:56.394Z,4.4
2023-04-18T22:06:59.528Z,3.3
2023-04-18T22:09:02.688Z,3
2023-04-18T22:11:05.808Z,3.8
2023-04-18T22:15:12.126Z,3.9
2023-04-18T22:17:16.832Z,4
2023-04-18T22:19:23.115Z,4.8
2023-04-18T22:21:26.247Z,4.2
2023-04-18T22:23:29.378Z,5
2023-04-18T22:24:32.581Z,4.8
2023-04-18T22:26:35.703Z,3.9
2023-04-18T22:28:38.847Z,3.7
2023-04-18T22:36:54.650Z,2.9
2023-04-18T22:38:57.774Z,4.6
2023-04-18T22:43:04.060Z,4.2
2023-04-18T22:45:07.194Z,3.9
2023-04-18T23:09:51.275Z,4.2
2023-04-18T23:11:54.408Z,3.8
2023-04-18T23:13:57.552Z,4.5
2023-04-18T23:16:03.924Z,3.4
2023-04-18T23:18:07.113Z,3.4
2023-04-18T23:20:10.174Z,4.8
2023-04-18T23:22:32.138Z,4.5
2023-04-18T23:24:35.278Z,3
2023-04-18T23:26:38.406Z,4.1
2023-04-18T23:28:44.790Z,4.9
2023-04-18T23:32:51.050Z,4.7
2023-04-18T23:34:54.143Z,5.1
2023-04-18T23:36:57.318Z,4.1
2023-04-18T23:41:03.531Z,4.4
2023-04-18T23:43:09.880Z,3.7
2023-04-18T23:45:13.002Z,5.5
2023-04-18T23:49:19.259Z,3.5
2023-04-18T23:53:25.529Z,5.9
2023-04-18T23:55:28.676Z,4.8
2023-04-18T23:59:38.141Z,3.6
